Latest Weather Observations for Bankstown

IDN60801

Issued at 4:32 am EST Wednesday 22 April 2015 (issued every 30 minutes, with the page automatically refreshed every 10 minutes)

About weather observations | Map of weather stations | Latest weather observations for NSW | Other Formats
Station Details ID: 066137 Name: BANKSTOWN AIRPORT AWS Lat: -33.92 Lon: 150.99 Height: 6.5 m
Data from the previous 72 hours. | See also: Recent months at Bankstown
Date/Time
EST
Temp
°C
App
Temp
°C
Dew
Point
Rel
Hum
%
Delta-T
°C
Wind Press
QNH
hPa
Press
MSL
hPa
Rain
since 9 am
mm
Dir
 
Spd
km/h
Gust
km/h
Spd
kts
Gust
kts
22/04:30am 17.0 11.9 14.8 87 1.3 S 35 50 19 27 1012.7 1012.7 37.8
22/04:03am 17.0 12.2 14.6 86 1.4 SSE 33 52 18 28 1012.5 1012.5 37.8
22/04:00am 17.1 12.0 14.7 86 1.4 SSE 35 52 19 28 1012.5 1012.5 37.8
22/03:53am 17.1 11.3 14.9 87 1.3 SSE 39 54 21 29 1012.3 1012.3 37.8
22/03:35am 16.8 12.7 15.0 89 1.0 S 30 69 16 37 1011.7 1011.7 37.8
22/03:34am 16.6 12.8 14.6 88 1.1 S 28 46 15 25 1011.6 1011.6 37.8
22/03:30am 16.7 12.9 14.7 88 1.2 S 28 39 15 21 1012.0 1012.0 36.0
22/03:16am 16.7 12.4 14.5 87 1.3 SSE 30 44 16 24 1012.4 1012.4 33.4
22/03:00am 16.9 12.3 14.7 87 1.3 SSE 32 44 17 24 1012.8 1012.8 32.4
22/02:30am 17.0 12.4 14.6 86 1.4 SSE 32 46 17 25 1013.0 1013.0 32.4
22/02:25am 16.9 11.4 14.7 87 1.3 SSE 37 61 20 33 1013.0 1013.0 32.4
22/02:21am 16.9 10.2 14.5 86 1.4 SSE 43 61 23 33 1013.0 1013.0 32.4
22/02:00am 16.9 11.5 15.1 89 1.0 S 37 57 20 31 1012.2 1012.2 32.2
22/01:45am 16.6 11.2 15.0 90 0.9 S 37 61 20 33 1012.8 1012.8 32.0
22/01:30am 16.3 11.5 14.7 90 0.9 SSE 33 52 18 28 1013.9 1013.9 31.8
22/01:15am 16.1 12.2 14.5 90 0.9 SSE 28 50 15 27 1014.2 1014.2 29.6
22/01:00am 15.6 11.5 13.8 89 1.0 SSE 28 41 15 22 1014.1 1014.1 26.4
22/12:40am 15.4 9.9 13.6 89 1.0 S 35 54 19 29 1013.8 1013.8 24.2
22/12:36am 15.3 9.8 13.5 89 1.0 S 35 54 19 29 1014.0 1014.0 23.6
22/12:34am 15.3 9.4 13.5 89 1.0 S 37 54 20 29 1014.0 1014.0 23.6
22/12:30am 15.4 9.9 13.6 89 1.0 S 35 54 19 29 1014.1 1014.1 23.2
22/12:00am 15.3 10.3 13.3 88 1.1 S 32 54 17 29 1014.4 1014.4 18.8
 
Date/Time
EST
Temp
°C
App
Temp
°C
Dew
Point
Rel
Hum
%
Delta-T
°C
Wind Press
QNH
hPa
Press
MSL
hPa
Rain
since 9 am
mm
Dir
 
Spd
km/h
Gust
km/h
Spd
kts
Gust
kts
21/11:34pm 15.0 10.6 13.0 88 1.1 S 28 48 15 26 1014.7 1014.7 16.8
21/11:30pm 14.8 11.1 12.8 88 1.1 SSW 24 48 13 26 1014.9 1014.9 16.4
21/11:09pm 14.7 10.2 12.7 88 1.1 S 28 46 15 25 1015.3 1015.3 15.6
21/11:00pm 14.4 10.6 12.4 88 1.1 SSW 24 32 13 17 1015.6 1015.6 15.4
21/10:33pm 14.5 10.0 12.5 88 1.1 SSW 28 46 15 25 1016.1 1016.1 15.0
21/10:30pm 14.5 10.0 12.5 88 1.1 SSW 28 41 15 22 1016.1 1016.1 15.0
21/10:20pm 14.4 9.8 12.4 88 1.1 SSW 28 46 15 25 1016.4 1016.4 14.8
21/10:00pm 14.0 10.0 11.9 87 1.1 SSW 24 32 13 17 1016.6 1016.6 14.4
21/09:58pm 13.9 9.9 11.8 87 1.1 SSW 24 32 13 17 1016.6 1016.6 14.4
21/09:30pm 13.7 7.8 11.2 85 1.3 SSW 33 48 18 26 1017.1 1017.1 14.0
21/09:00pm 13.9 6.9 11.2 84 1.4 S 39 67 21 36 1017.6 1017.6 13.8
21/08:34pm 13.9 7.6 10.9 82 1.6 S 35 54 19 29 1017.3 1017.3 13.6
21/08:30pm 14.0 7.2 10.8 81 1.7 S 37 61 20 33 1017.3 1017.3 13.6
21/08:03pm 14.2 8.0 11.4 83 1.5 S 35 54 19 29 1017.5 1017.5 13.4
21/08:00pm 14.2 8.0 11.4 83 1.5 S 35 50 19 27 1017.3 1017.3 13.4
21/07:30pm 14.7 8.1 11.5 81 1.7 S 37 63 20 34 1017.6 1017.6 13.0
21/07:00pm 14.1 8.3 11.6 85 1.3 S 33 54 18 29 1017.9 1017.9 13.0
21/06:44pm 13.9 6.9 11.4 85 1.3 S 39 61 21 33 1017.8 1017.8 12.6
21/06:30pm 13.5 6.5 11.2 86 1.2 S 39 63 21 34 1018.1 1018.1 12.4
21/06:08pm 13.9 7.4 11.8 87 1.1 S 37 56 20 30 1018.3 1018.3 11.2
21/06:00pm 13.7 7.9 11.6 87 1.1 S 33 50 18 27 1018.5 1018.5 10.6
21/05:30pm 13.5 7.5 10.7 83 1.5 S 33 52 18 28 1018.9 1018.9 8.0
21/05:16pm 13.4 8.4 10.8 84 1.4 S 28 54 15 29 1018.9 1018.9 7.2
21/05:00pm 14.1 10.0 11.4 84 1.4 S 24 37 13 20 1018.3 1018.3 6.0
21/04:43pm 13.8 9.9 10.8 82 1.6 SSW 22 32 12 17 1018.3 1018.3 4.6
21/04:30pm 13.9 8.8 10.5 80 1.8 S 28 46 15 25 1018.2 1018.2 4.2
21/04:26pm 13.9 8.8 10.5 80 1.8 S 28 46 15 25 1018.2 1018.2 4.0
21/04:00pm 14.2 10.3 10.8 80 1.8 S 22 35 12 19 1018.3 1018.3 3.8
21/03:36pm 14.3 8.5 10.7 79 1.9 S 32 50 17 27 1018.2 1018.2 3.8
21/03:30pm 14.3 7.8 10.3 77 2.1 S 35 50 19 27 1018.2 1018.2 3.6
21/03:00pm 14.9 8.1 10.5 75 2.3 S 37 63 20 34 1018.4 1018.4 3.4
21/02:30pm 14.7 8.0 11.1 79 1.9 S 37 59 20 32 1018.3 1018.3 3.4
21/02:03pm 14.8 9.5 11.2 79 1.9 S 30 48 16 26 1018.3 1018.3 3.4
21/02:00pm 14.8 9.1 11.0 78 2.0 S 32 44 17 24 1018.3 1018.3 3.4
21/01:30pm 15.3 10.1 11.5 78 2.0 S 30 50 16 27 1018.4 1018.4 3.0
21/01:00pm 15.7 8.3 11.1 74 2.5 SSE 41 67 22 36 1018.6 1018.6 3.0
21/12:30pm 15.4 7.4 10.6 73 2.5 SSE 43 67 23 36 1018.6 1018.6 2.8
21/12:07pm 15.3 8.8 11.7 79 1.9 SSE 37 59 20 32 1019.2 1019.2 2.8
21/12:00pm 15.0 8.9 11.6 80 1.8 SSE 35 48 19 26 1019.3 1019.3 2.8
21/11:44am 15.3 9.2 11.7 79 1.9 SSE 35 65 19 35 1019.4 1019.4 2.8
21/11:30am 15.0 9.0 12.0 82 1.6 S 35 46 19 25 1019.5 1019.5 2.6
21/11:00am 14.8 8.3 11.8 82 1.6 SSE 37 57 20 31 1020.2 1020.2 2.4
21/10:30am 14.8 6.9 11.6 81 1.7 SSE 44 63 24 34 1020.6 1020.6 2.0
21/10:19am 14.8 7.9 11.6 81 1.7 SSE 39 59 21 32 1021.0 1021.0 1.8
21/10:00am 15.1 7.6 12.1 82 1.6 SSE 43 67 23 36 1020.5 1020.5 1.4
21/09:59am 15.1 7.9 11.9 81 1.7 SSE 41 67 22 36 1020.5 1020.5 1.2
21/09:32am 15.2 8.1 12.1 82 1.7 SSE 41 61 22 33 1020.5 1020.5 0.8
21/09:30am 15.0 7.8 12.0 82 1.6 SSE 41 54 22 29 1020.5 1020.5 0.8
21/09:00am 15.2 8.4 12.0 81 1.7 SSE 39 61 21 33 1020.3 1020.3 79.0
21/08:36am 15.0 7.2 11.8 81 1.7 SSE 44 65 24 35 1020.4 1020.4 78.6
21/08:30am 15.1 7.6 12.1 82 1.6 SSE 43 63 23 34 1020.5 1020.5 78.6
21/08:10am 15.0 7.5 12.0 82 1.6 SSE 43 69 23 37 1020.9 1020.9 77.6
21/08:00am 15.2 8.4 12.0 81 1.7 SSE 39 65 21 35 1020.7 1020.7 77.0
21/07:30am 15.0 8.0 11.4 79 1.9 SSE 39 63 21 34 1020.7 1020.7 76.2
21/07:11am 15.1 7.9 11.9 81 1.7 SSE 41 61 22 33 1020.5 1020.5 75.4
21/07:09am 14.9 8.1 11.9 82 1.6 SSE 39 56 21 30 1020.4 1020.4 75.4
21/07:05am 14.8 8.7 11.9 83 1.6 SSE 35 56 19 30 1020.3 1020.3 75.4
21/07:00am 14.6 8.5 11.7 83 1.6 SSE 35 52 19 28 1020.2 1020.2 75.0
21/06:55am 14.5 8.3 11.5 82 1.6 SSE 35 54 19 29 1020.1 1020.1 74.8
21/06:47am 14.7 7.8 11.7 82 1.6 SSE 39 69 21 37 1020.3 1020.3 74.6
21/06:30am 14.4 8.0 11.9 85 1.3 SSE 37 57 20 31 1019.9 1019.9 73.8
21/06:24am 14.5 7.7 12.0 85 1.4 S 39 57 21 31 1019.8 1019.8 73.4
21/06:00am 14.6 7.7 11.7 83 1.6 SSE 39 52 21 28 1020.2 1020.2 71.4
21/05:53am 14.6 8.5 11.7 83 1.6 SSE 35 50 19 27 1020.3 1020.3 70.8
21/05:30am 15.1 7.0 11.9 81 1.7 SSE 46 61 25 33 1020.2 1020.2 69.2
21/05:14am 15.0 9.4 12.1 83 1.6 SSE 33 52 18 28 1020.0 1020.0 68.8
21/05:13am 15.0 9.0 12.1 83 1.6 SSE 35 52 19 28 1020.0 1020.0 68.8
21/05:00am 15.0 7.9 12.3 84 1.5 SSE 41 65 22 35 1019.9 1019.9 68.2
21/04:32am 14.8 8.1 12.3 85 1.4 SSE 39 57 21 31 1020.1 1020.1 66.0
21/04:30am 14.8 8.1 12.3 85 1.4 SSE 39 54 21 29 1020.1 1020.1 66.0
21/04:18am 14.8 8.1 12.3 85 1.4 SSE 39 54 21 29 1020.4 1020.4 65.2
21/04:00am 14.7 8.0 12.2 85 1.4 SSE 39 52 21 28 1020.4 1020.4 64.0
21/03:30am 14.7 7.5 12.0 84 1.5 SSE 41 67 22 36 1020.4 1020.4 61.6
21/03:15am 14.8 9.4 12.3 85 1.4 SSE 32 54 17 29 1020.6 1020.6 60.6
21/03:07am 14.7 9.1 12.0 84 1.5 SSE 33 50 18 27 1020.4 1020.4 59.8
21/03:00am 14.7 8.6 11.8 83 1.6 SSE 35 54 19 29 1020.6 1020.6 59.4
21/02:46am 14.8 8.0 11.8 82 1.6 SSE 39 63 21 34 1020.8 1020.8 58.6
21/02:30am 14.5 6.8 11.5 82 1.6 SSE 43 61 23 33 1021.0 1021.0 57.6
21/02:18am 15.2 8.4 12.1 82 1.7 SSE 39 57 21 31 1020.9 1020.9 57.0
21/02:13am 15.3 8.5 12.1 81 1.7 SSE 39 54 21 29 1020.9 1020.9 56.8
21/02:00am 15.4 8.7 12.3 82 1.7 SSE 39 61 21 33 1021.0 1021.0 56.0
21/01:59am 15.4 9.1 12.3 82 1.7 SSE 37 61 20 33 1021.0 1021.0 56.0
21/01:39am 15.3 8.6 12.2 82 1.7 SSE 39 67 21 36 1021.2 1021.2 55.2
21/01:38am 15.2 8.9 12.3 83 1.6 SSE 37 52 20 28 1021.2 1021.2 55.2
21/01:37am 15.3 8.6 12.4 83 1.6 SSE 39 52 21 28 1021.2 1021.2 55.2
21/01:30am 15.2 9.3 12.5 84 1.5 SSE 35 48 19 26 1021.4 1021.4 54.6
21/01:13am 15.2 8.0 12.0 81 1.7 SSE 41 61 22 33 1021.8 1021.8 53.8
21/01:00am 15.7 10.2 12.5 81 1.8 SSE 33 52 18 28 1021.4 1021.4 52.8
21/12:30am 15.5 8.5 12.6 83 1.6 SSE 41 61 22 33 1021.7 1021.7 52.0
21/12:00am 15.5 8.5 12.4 82 1.7 SSE 41 65 22 35 1021.8 1021.8 51.4
 
Date/Time
EST
Temp
°C
App
Temp
°C
Dew
Point
Rel
Hum
%
Delta-T
°C
Wind Press
QNH
hPa
Press
MSL
hPa
Rain
since 9 am
mm
Dir
 
Spd
km/h
Gust
km/h
Spd
kts
Gust
kts
20/11:50pm 15.3 8.6 12.4 83 1.6 SSE 39 59 21 32 1022.1 1022.1 51.0
20/11:30pm 15.3 8.7 12.6 84 1.5 SSE 39 59 21 32 1022.2 1022.2 50.0
20/11:18pm 15.2 9.3 12.5 84 1.5 SSE 35 48 19 26 1022.3 1022.3 48.8
20/11:14pm 15.1 9.2 12.4 84 1.5 S 35 48 19 26 1022.3 1022.3 48.6
20/11:00pm 15.4 8.8 12.5 83 1.6 S 39 74 21 40 1022.3 1022.3 48.2
20/10:58pm 15.4 8.8 12.7 84 1.5 S 39 74 21 40 1022.3 1022.3 47.8
20/10:57pm 15.2 9.0 12.5 84 1.5 S 37 56 20 30 1022.4 1022.4 47.8
20/10:35pm 15.5 8.9 12.6 83 1.6 SSE 39 57 21 31 1022.3 1022.3 47.2
20/10:30pm 15.5 9.3 12.8 84 1.5 SSE 37 54 20 29 1022.3 1022.3 46.8
20/10:26pm 15.5 9.3 12.8 84 1.5 SSE 37 52 20 28 1022.5 1022.5 46.6
20/10:00pm 15.3 8.0 12.8 85 1.4 SSE 43 61 23 33 1022.6 1022.6 45.6
20/09:58pm 15.6 8.8 13.1 85 1.4 SSE 41 61 22 33 1022.7 1022.7 45.6
20/09:54pm 15.5 8.7 13.0 85 1.4 SSE 41 54 22 29 1022.7 1022.7 45.2
20/09:49pm 15.5 9.0 13.0 85 1.4 SSE 39 52 21 28 1022.8 1022.8 45.0
20/09:37pm 15.5 8.2 12.8 84 1.5 SSE 43 65 23 35 1022.8 1022.8 44.8
20/09:30pm 15.6 8.2 12.5 82 1.7 SSE 43 65 23 35 1022.8 1022.8 44.4
20/09:11pm 15.7 8.5 13.2 85 1.4 SSE 43 61 23 33 1022.8 1022.8 44.2
20/09:00pm 15.5 9.1 13.2 86 1.3 SSE 39 57 21 31 1022.9 1022.9 44.0
20/08:30pm 15.6 8.3 13.3 86 1.3 SSE 44 65 24 35 1023.2 1023.2 41.8
20/08:25pm 15.5 8.4 13.3 87 1.2 SSE 43 65 23 35 1023.2 1023.2 41.6
20/08:03pm 15.5 8.4 13.5 88 1.1 SSE 43 61 23 33 1022.9 1022.9 39.6
20/08:00pm 15.5 8.8 13.5 88 1.1 SSE 41 61 22 33 1022.9 1022.9 39.4
20/07:35pm 15.8 8.9 14.0 89 1.0 SSE 43 65 23 35 1022.7 1022.7 37.6
20/07:30pm 15.7 8.8 13.9 89 1.0 SSE 43 59 23 32 1022.5 1022.5 37.2
20/07:00pm 15.5 9.3 13.7 89 1.0 SSE 39 69 21 37 1022.6 1022.6 34.6
20/06:55pm 15.6 8.4 13.6 88 1.1 SSE 44 69 24 37 1022.4 1022.4 34.2
20/06:32pm 15.6 9.0 13.6 88 1.1 SSE 41 59 22 32 1022.5 1022.5 31.4
20/06:30pm 15.6 8.6 13.6 88 1.1 SSE 43 59 23 32 1022.4 1022.4 31.2
20/06:17pm 15.7 8.5 13.7 88 1.1 SSE 44 69 24 37 1022.4 1022.4 29.2
20/06:07pm 16.0 8.4 13.7 86 1.3 SSE 46 63 25 34 1022.0 1022.0 28.0
20/06:00pm 16.2 9.7 13.9 86 1.3 SSE 41 61 22 33 1021.9 1021.9 27.2
20/05:42pm 16.2 9.3 14.0 87 1.2 SSE 43 63 23 34 1021.6 1021.6 26.2
20/05:41pm 16.1 9.6 13.9 87 1.2 SSE 41 59 22 32 1021.6 1021.6 26.2
20/05:30pm 16.3 9.5 14.3 88 1.1 SSE 43 69 23 37 1021.6 1021.6 25.6
20/05:00pm 16.2 9.3 14.0 87 1.2 SSE 43 69 23 37 1021.3 1021.3 22.6
20/04:46pm 15.9 10.4 13.7 87 1.2 SSE 35 54 19 29 1021.4 1021.4 21.6
20/04:32pm 15.9 11.0 13.6 86 1.3 SSE 32 43 17 23 1021.3 1021.3 20.2
20/04:30pm 15.9 10.8 13.6 86 1.3 SSE 33 57 18 31 1021.4 1021.4 20.2
20/04:26pm 16.0 9.7 13.5 85 1.4 SSE 39 57 21 31 1021.2 1021.2 20.0
20/04:14pm 16.4 9.3 13.5 83 1.6 SSE 43 67 23 36 1021.3 1021.3 19.2
20/04:00pm 16.7 10.1 13.6 82 1.7 SSE 41 57 22 31 1021.2 1021.2 19.2
20/03:36pm 16.9 11.5 14.0 83 1.6 SSE 35 56 19 30 1021.3 1021.3 19.2
20/03:30pm 16.9 11.1 14.0 83 1.6 SSE 37 52 20 28 1021.2 1021.2 19.2
20/03:12pm 16.9 10.8 14.2 84 1.5 SSE 39 57 21 31 1021.4 1021.4 19.0
20/03:00pm 16.8 10.8 14.4 86 1.4 SSE 39 57 21 31 1021.4 1021.4 18.8
20/02:56pm 16.8 11.6 14.6 87 1.3 SSE 35 54 19 29 1021.4 1021.4 18.8
20/02:55pm 16.8 11.6 14.6 87 1.3 SSE 35 50 19 27 1021.5 1021.5 18.8
20/02:32pm 16.6 12.0 14.6 88 1.1 SSE 32 50 17 27 1021.3 1021.3 17.6
20/02:30pm 16.6 11.4 14.6 88 1.1 SSE 35 50 19 27 1021.4 1021.4 17.4
20/02:05pm 16.0 11.6 14.2 89 1.0 SSE 30 50 16 27 1021.4 1021.4 16.0
20/02:00pm 15.9 11.4 13.9 88 1.1 S 30 46 16 25 1021.7 1021.7 15.2
20/01:34pm 15.6 12.1 13.4 87 1.2 SSE 24 37 13 20 1022.0 1022.0 11.8
20/01:30pm 15.6 12.1 13.3 86 1.3 SSE 24 41 13 22 1021.7 1021.7 10.8
20/01:16pm 16.3 12.5 13.6 84 1.5 SSE 26 35 14 19 1022.0 1022.0 7.4
20/01:08pm 16.7 12.5 13.4 81 1.9 SSE 28 46 15 25 1022.0 1022.0 6.8
20/01:00pm 16.7 11.8 13.6 82 1.7 SSE 32 46 17 25 1021.9 1021.9 6.8
20/12:30pm 16.5 11.5 13.4 82 1.7 SSE 32 54 17 29 1022.3 1022.3 6.6
20/12:00pm 16.0 11.9 13.7 86 1.3 S 28 46 15 25 1022.8 1022.8 6.6
20/11:30am 15.5 12.0 13.3 87 1.2 S 24 37 13 20 1023.9 1023.9 6.2
20/11:07am 15.1 12.8 13.1 88 1.1 S 17 20 9 11 1024.4 1024.4 5.8
20/11:00am 14.9 12.6 12.9 88 1.1 S 17 30 9 16 1024.2 1024.2 5.8
20/10:54am 14.8 12.1 12.8 88 1.1 S 19 30 10 16 1023.9 1023.9 5.4
20/10:30am 14.6 10.8 12.3 86 1.3 S 24 35 13 19 1024.0 1024.0 4.6
20/10:13am 14.5 10.7 12.5 88 1.1 S 24 44 13 24 1024.1 1024.1 4.4
20/10:00am 14.2 10.3 12.1 87 1.1 S 24 35 13 19 1024.3 1024.3 3.8
20/09:59am 14.2 10.3 12.1 87 1.1 S 24 35 13 19 1024.4 1024.4 3.6
20/09:41am 14.2 11.6 11.9 86 1.2 SSW 17 26 9 14 1024.9 1024.9 1.8
20/09:30am 14.3 12.1 12.0 86 1.2 SSW 15 20 8 11 1024.9 1024.9 0.6
20/09:22am 14.2 11.6 11.9 86 1.2 SSW 17 28 9 15 1025.0 1025.0 0.6
20/09:06am 14.1 8.9 11.6 85 1.3 S 30 48 16 26 1024.1 1024.1 0.4
20/09:00am 14.1 8.5 11.4 84 1.4 S 32 48 17 26 1023.9 1023.9 4.6
20/08:57am 14.1 8.8 11.4 84 1.4 S 30 48 16 26 1023.9 1023.9 4.4
20/08:30am 14.4 12.1 11.9 85 1.3 SSW 15 28 8 15 1024.7 1024.7 4.2
20/08:00am 13.7 10.9 11.4 86 1.2 S 17 24 9 13 1024.5 1024.5 4.2
20/07:30am 12.9 9.9 10.6 86 1.2 SSW 17 26 9 14 1024.4 1024.4 4.2
20/07:00am 12.7 10.4 10.4 86 1.2 WSW 13 17 7 9 1024.8 1024.8 3.2
20/06:30am 12.5 9.7 10.0 85 1.3 SW 15 20 8 11 1024.4 1024.4 2.4
20/06:00am 12.4 10.3 9.6 83 1.4 WSW 11 15 6 8 1024.5 1024.5 2.2
20/05:30am 12.6 10.0 9.4 81 1.6 WSW 13 19 7 10 1024.4 1024.4 1.6
20/05:00am 12.4 9.8 9.4 82 1.5 WSW 13 19 7 10 1024.3 1024.3 1.6
20/04:30am 12.2 8.9 9.4 83 1.4 SW 17 24 9 13 1024.2 1024.2 1.6
20/04:00am 12.2 9.3 9.6 84 1.3 SSW 15 20 8 11 1024.1 1024.1 1.6
20/03:30am 12.1 9.5 9.5 84 1.3 SW 13 17 7 9 1024.2 1024.2 1.6
20/03:00am 12.4 9.5 9.6 83 1.4 SW 15 22 8 12 1024.4 1024.4 1.4
20/02:30am 12.5 10.1 9.9 84 1.3 SW 13 17 7 9 1024.9 1024.9 1.4
20/02:00am 12.6 10.6 10.3 86 1.2 SSW 11 17 6 9 1024.7 1024.7 1.4
20/01:30am 12.6 9.9 10.3 86 1.2 SSW 15 20 8 11 1024.9 1024.9 1.4
20/01:00am 12.6 11.0 10.3 86 1.2 SSW 9 13 5 7 1025.4 1025.4 1.2
20/12:30am 12.6 11.0 10.3 86 1.2 SW 9 13 5 7 1025.7 1025.7 0.6
20/12:00am 12.4 10.8 10.1 86 1.2 WSW 9 11 5 6 1025.7 1025.7 0.4
 
Date/Time
EST
Temp
°C
App
Temp
°C
Dew
Point
Rel
Hum
%
Delta-T
°C
Wind Press
QNH
hPa
Press
MSL
hPa
Rain
since 9 am
mm
Dir
 
Spd
km/h
Gust
km/h
Spd
kts
Gust
kts
19/11:30pm 12.2 10.1 9.9 86 1.2 W 11 15 6 8 1026.1 1026.1 0.2
19/11:00pm 12.5 10.4 9.7 83 1.4 WSW 11 17 6 9 1026.0 1026.0 0.0
19/10:30pm 12.8 10.2 9.3 79 1.8 WSW 13 19 7 10 1026.1 1026.1 0.0
19/10:00pm 12.9 9.4 8.8 76 2.0 WSW 17 20 9 11 1025.9 1025.9 0.0
19/09:30pm 13.6 10.3 8.0 69 2.8 WSW 15 20 8 11 1025.6 1025.6 0.0
19/09:00pm 13.9 10.2 7.9 67 3.0 WSW 17 22 9 12 1025.4 1025.4 0.0
19/08:30pm 15.0 11.3 7.8 62 3.6 SSW 17 30 9 16 1025.2 1025.2 0.0
19/08:00pm 14.9 10.6 7.9 63 3.5 S 20 24 11 13 1024.9 1024.9 0.0
19/07:30pm 15.0 10.9 8.0 63 3.5 SSW 19 30 10 16 1024.5 1024.5 0.0
19/07:00pm 15.1 10.4 7.9 62 3.6 S 22 33 12 18 1023.6 1023.6 0.0
19/06:30pm 15.4 11.4 8.9 65 3.3 S 20 28 11 15 1023.1 1023.1 0.0
19/06:00pm 15.8 12.0 9.7 67 3.2 S 20 35 11 19 1022.4 1022.4 0.0
19/05:30pm 16.4 10.9 9.3 63 3.7 SSE 28 41 15 22 1021.7 1021.7 0.0
19/05:13pm 16.7 10.2 8.9 60 4.0 SSE 33 52 18 28 1021.7 1021.7 0.0
19/05:00pm 17.4 11.3 9.6 60 4.1 SSE 32 46 17 25 1021.6 1021.6 0.0
19/04:30pm 18.2 10.5 8.7 54 4.9 SSE 39 57 21 31 1021.0 1021.0 0.0
19/04:02pm 18.8 12.7 9.8 56 4.8 SSE 32 52 17 28 1020.5 1020.5 0.0
19/04:00pm 18.9 13.0 10.5 58 4.5 SSE 32 43 17 23 1020.4 1020.4 0.0
19/03:30pm 19.4 14.1 11.2 59 4.5 SSE 30 39 16 21 1020.1 1020.1 0.0
19/03:00pm 19.6 13.4 11.4 59 4.5 SSE 35 50 19 27 1019.7 1019.7 0.0
19/02:30pm 20.5 14.9 11.4 56 5.0 SSE 32 44 17 24 1019.4 1019.4 0.0
19/02:00pm 20.6 15.2 12.1 58 4.7 SSE 32 41 17 22 1019.2 1019.2 0.0
19/01:37pm 21.2 16.5 12.1 56 5.1 SSE 28 46 15 25 1019.0 1019.0 0.0
19/01:30pm 21.4 16.9 12.5 57 5.0 SSE 28 37 15 20 1019.0 1019.0 0.0
19/01:00pm 21.1 16.6 11.4 54 5.4 SE 26 32 14 17 1018.9 1018.9 0.0
19/12:30pm 21.1 17.2 12.0 56 5.1 SSE 24 33 13 18 1019.0 1019.0 0.0
19/12:00pm 23.4 21.3 11.1 46 6.8 SSW 13 24 7 13 1018.9 1018.9 0.0
19/11:30am 22.0 19.0 9.2 44 6.8 SSW 15 24 8 13 1019.0 1019.0 0.0
19/11:00am 21.3 17.3 8.2 43 6.8 SW 19 26 10 14 1019.2 1019.2 0.0
19/10:30am 21.2 17.1 8.5 44 6.7 SW 20 28 11 15 1019.2 1019.2 0.0
19/10:00am 20.3 16.9 9.2 49 5.9 SSW 17 22 9 12 1019.1 1019.1 0.0
19/09:30am 19.6 16.1 8.9 50 5.6 SW 17 32 9 17 1019.1 1019.1 0.0
19/09:00am 18.9 15.3 9.9 56 4.8 SW 19 26 10 14 1018.7 1018.7 4.8
19/08:30am 18.2 15.9 14.1 77 2.3 SW 19 24 10 13 1018.4 1018.4 4.8
19/08:03am 17.2 17.1 15.9 92 0.8 SSW 11 15 6 8 1018.0 1018.0 4.8
19/08:00am 17.0 16.8 15.7 92 0.8 SSW 11 15 6 8 1017.9 1017.9 4.8
19/07:30am 16.7 17.3 15.4 92 0.8 WNW 6 7 3 4 1017.4 1017.4 4.8
19/07:00am 16.5 16.8 15.0 91 0.9 WNW 7 9 4 5 1016.5 1016.5 4.8
19/06:55am 16.5 16.8 15.0 91 0.9 WNW 7 9 4 5 1016.5 1016.5 4.8
19/06:30am 15.8 15.8 14.2 90 0.9 WNW 7 11 4 6 1016.1 1016.1 4.8
19/06:25am 15.8 16.0 14.2 90 0.9 NNW 6 9 3 5 1016.0 1016.0 4.8
19/06:16am 16.4 16.6 14.8 90 0.9 NW 7 7 4 4 1015.7 1015.7 4.8
19/06:00am 16.5 17.7 14.9 90 0.9 SSW 2 6 1 3 1015.4 1015.4 4.8
19/05:30am 16.2 16.3 14.4 89 1.0 S 7 9 4 5 1015.0 1015.0 4.8
19/05:26am 16.2 16.3 14.4 89 1.0 S 7 11 4 6 1014.9 1014.9 4.8
19/05:00am 17.2 19.0 15.4 89 1.1 CALM 0 0 0 0 1014.8 1014.8 4.8

Other Formats:

Comma delimited format used in spreadsheet applications
http://www.bom.gov.au/fwo/IDN60801/IDN60801.94765.axf

JavaScript Object Notation format (JSON) in row-major order
http://www.bom.gov.au/fwo/IDN60801/IDN60801.94765.json